UNWW 281330Z 24009MPS 9999 BKN017CB 04/00 Q1010 R19/220255 NOSIG RMK QFE731
QNH:(hPa/inHg/mmHg)1010 / 29.83 / 758
QFE:(hPa/inHg/mmHg)972 / 28.71 / 729
Temperature4
Dew Point0
Visibility> 10000
Weather
Cloud CoverBKN (1700);
Transition Height800 m./3700 ft.
Transition LevelFL60
SQUAWK